sensor_id;sensor_type;location;lat;lon;timestamp;P1;durP1;ratioP1;P2;durP2;ratioP2
25950;SDS011;13748;52.240;6.002;2022-09-01T00:01:38;4.70;;;3.60;;
25950;SDS011;13748;52.240;6.002;2022-09-01T00:04:08;5.27;;;3.80;;
25950;SDS011;13748;52.240;6.002;2022-09-01T00:06:38;5.63;;;3.50;;
25950;SDS011;13748;52.240;6.002;2022-09-01T00:09:07;5.67;;;3.30;;
25950;SDS011;13748;52.240;6.002;2022-09-01T00:11:37;7.30;;;3.47;;
25950;SDS011;13748;52.240;6.002;2022-09-01T00:14:05;6.57;;;3.50;;
25950;SDS011;13748;52.240;6.002;2022-09-01T00:16:56;3.93;;;3.10;;
25950;SDS011;13748;52.240;6.002;2022-09-01T00:19:23;4.67;;;3.47;;
25950;SDS011;13748;52.240;6.002;2022-09-01T00:21:50;5.57;;;3.80;;
25950;SDS011;13748;52.240;6.002;2022-09-01T00:24:17;3.93;;;3.27;;
25950;SDS011;13748;52.240;6.002;2022-09-01T00:26:45;6.67;;;3.80;;
25950;SDS011;13748;52.240;6.002;2022-09-01T00:29:13;6.23;;;3.70;;
25950;SDS011;13748;52.240;6.002;2022-09-01T00:31:40;5.80;;;3.70;;
25950;SDS011;13748;52.240;6.002;2022-09-01T00:34:07;7.43;;;3.73;;
25950;SDS011;13748;52.240;6.002;2022-09-01T00:36:35;5.80;;;4.00;;
25950;SDS011;13748;52.240;6.002;2022-09-01T00:39:02;5.07;;;3.40;;
25950;SDS011;13748;52.240;6.002;2022-09-01T00:41:31;5.57;;;4.07;;
25950;SDS011;13748;52.240;6.002;2022-09-01T00:44:01;4.43;;;3.63;;
25950;SDS011;13748;52.240;6.002;2022-09-01T00:46:32;4.10;;;3.70;;
25950;SDS011;13748;52.240;6.002;2022-09-01T00:49:18;7.27;;;4.10;;
25950;SDS011;13748;52.240;6.002;2022-09-01T00:51:54;4.37;;;3.70;;
25950;SDS011;13748;52.240;6.002;2022-09-01T00:54:25;6.37;;;4.10;;
25950;SDS011;13748;52.240;6.002;2022-09-01T00:56:56;5.67;;;3.83;;
25950;SDS011;13748;52.240;6.002;2022-09-01T00:59:24;8.97;;;4.33;;
25950;SDS011;13748;52.240;6.002;2022-09-01T01:01:52;4.63;;;3.63;;
25950;SDS011;13748;52.240;6.002;2022-09-01T01:04:20;5.83;;;4.43;;
25950;SDS011;13748;52.240;6.002;2022-09-01T01:06:49;6.03;;;3.90;;
25950;SDS011;13748;52.240;6.002;2022-09-01T01:09:24;5.80;;;3.73;;
25950;SDS011;13748;52.240;6.002;2022-09-01T01:11:54;6.30;;;3.83;;
25950;SDS011;13748;52.240;6.002;2022-09-01T01:14:25;5.37;;;3.90;;
25950;SDS011;13748;52.240;6.002;2022-09-01T01:16:58;8.63;;;4.40;;
25950;SDS011;13748;52.240;6.002;2022-09-01T01:22:42;7.37;;;4.10;;
25950;SDS011;13748;52.240;6.002;2022-09-01T01:25:30;5.33;;;4.23;;
25950;SDS011;13748;52.240;6.002;2022-09-01T01:28:05;4.30;;;3.90;;
25950;SDS011;13748;52.240;6.002;2022-09-01T01:30:45;5.80;;;4.30;;
25950;SDS011;13748;52.240;6.002;2022-09-01T01:33:18;6.30;;;4.60;;
25950;SDS011;13748;52.240;6.002;2022-09-01T01:35:48;8.20;;;4.10;;
25950;SDS011;13748;52.240;6.002;2022-09-01T01:38:17;7.53;;;4.60;;
25950;SDS011;13748;52.240;6.002;2022-09-01T01:40:49;6.67;;;4.67;;
25950;SDS011;13748;52.240;6.002;2022-09-01T01:43:17;6.90;;;4.97;;
25950;SDS011;13748;52.240;6.002;2022-09-01T01:45:50;5.80;;;4.83;;
25950;SDS011;13748;52.240;6.002;2022-09-01T01:48:19;5.37;;;4.53;;
25950;SDS011;13748;52.240;6.002;2022-09-01T01:50:53;5.90;;;5.03;;
25950;SDS011;13748;52.240;6.002;2022-09-01T01:53:23;7.10;;;4.23;;
25950;SDS011;13748;52.240;6.002;2022-09-01T01:55:50;9.77;;;5.10;;
25950;SDS011;13748;52.240;6.002;2022-09-01T01:58:18;7.70;;;5.43;;
25950;SDS011;13748;52.240;6.002;2022-09-01T02:00:48;7.13;;;5.60;;
25950;SDS011;13748;52.240;6.002;2022-09-01T02:03:18;8.00;;;6.63;;
25950;SDS011;13748;52.240;6.002;2022-09-01T02:05:48;10.70;;;8.63;;
25950;SDS011;13748;52.240;6.002;2022-09-01T02:08:16;11.63;;;9.77;;
25950;SDS011;13748;52.240;6.002;2022-09-01T02:10:47;18.33;;;11.87;;
25950;SDS011;13748;52.240;6.002;2022-09-01T02:13:16;16.63;;;10.53;;
25950;SDS011;13748;52.240;6.002;2022-09-01T02:15:49;14.83;;;11.07;;
25950;SDS011;13748;52.240;6.002;2022-09-01T02:18:23;12.50;;;9.83;;
25950;SDS011;13748;52.240;6.002;2022-09-01T02:20:53;11.40;;;8.30;;
25950;SDS011;13748;52.240;6.002;2022-09-01T02:23:24;7.93;;;7.13;;
25950;SDS011;13748;52.240;6.002;2022-09-01T02:25:55;8.40;;;7.10;;
25950;SDS011;13748;52.240;6.002;2022-09-01T02:28:43;9.40;;;6.43;;
25950;SDS011;13748;52.240;6.002;2022-09-01T02:31:20;9.13;;;5.73;;
25950;SDS011;13748;52.240;6.002;2022-09-01T02:33:49;9.90;;;6.63;;
25950;SDS011;13748;52.240;6.002;2022-09-01T02:36:17;7.20;;;5.70;;
25950;SDS011;13748;52.240;6.002;2022-09-01T02:38:45;7.10;;;6.37;;
25950;SDS011;13748;52.240;6.002;2022-09-01T02:41:20;6.63;;;5.97;;
25950;SDS011;13748;52.240;6.002;2022-09-01T02:43:52;9.17;;;6.10;;
25950;SDS011;13748;52.240;6.002;2022-09-01T02:46:19;6.93;;;5.87;;
25950;SDS011;13748;52.240;6.002;2022-09-01T02:48:50;13.07;;;6.03;;
25950;SDS011;13748;52.240;6.002;2022-09-01T02:51:18;9.87;;;6.07;;
25950;SDS011;13748;52.240;6.002;2022-09-01T02:53:48;10.40;;;6.80;;
25950;SDS011;13748;52.240;6.002;2022-09-01T02:56:22;9.30;;;6.30;;
25950;SDS011;13748;52.240;6.002;2022-09-01T02:58:51;7.97;;;6.00;;
25950;SDS011;13748;52.240;6.002;2022-09-01T03:01:20;7.50;;;5.73;;
25950;SDS011;13748;52.240;6.002;2022-09-01T03:03:51;6.90;;;5.73;;
25950;SDS011;13748;52.240;6.002;2022-09-01T03:06:21;8.43;;;5.93;;
25950;SDS011;13748;52.240;6.002;2022-09-01T03:08:50;9.33;;;5.60;;
25950;SDS011;13748;52.240;6.002;2022-09-01T03:11:20;9.47;;;5.63;;
25950;SDS011;13748;52.240;6.002;2022-09-01T03:13:50;8.33;;;6.37;;
25950;SDS011;13748;52.240;6.002;2022-09-01T03:16:17;8.23;;;5.33;;
25950;SDS011;13748;52.240;6.002;2022-09-01T03:18:45;6.47;;;5.60;;
25950;SDS011;13748;52.240;6.002;2022-09-01T03:21:12;8.33;;;5.80;;
25950;SDS011;13748;52.240;6.002;2022-09-01T03:23:42;8.67;;;5.93;;
25950;SDS011;13748;52.240;6.002;2022-09-01T03:26:11;9.67;;;6.67;;
25950;SDS011;13748;52.240;6.002;2022-09-01T03:28:39;8.30;;;6.83;;
25950;SDS011;13748;52.240;6.002;2022-09-01T03:31:07;6.83;;;5.77;;
25950;SDS011;13748;52.240;6.002;2022-09-01T03:33:34;8.00;;;5.97;;
25950;SDS011;13748;52.240;6.002;2022-09-01T03:36:02;7.43;;;5.87;;
25950;SDS011;13748;52.240;6.002;2022-09-01T03:38:40;7.60;;;6.00;;
25950;SDS011;13748;52.240;6.002;2022-09-01T03:41:09;8.43;;;5.70;;
25950;SDS011;13748;52.240;6.002;2022-09-01T03:43:38;6.30;;;5.60;;
25950;SDS011;13748;52.240;6.002;2022-09-01T03:46:13;7.50;;;5.70;;
25950;SDS011;13748;52.240;6.002;2022-09-01T03:48:52;8.27;;;5.63;;
25950;SDS011;13748;52.240;6.002;2022-09-01T03:51:21;7.20;;;5.80;;
25950;SDS011;13748;52.240;6.002;2022-09-01T03:53:50;7.27;;;5.97;;
25950;SDS011;13748;52.240;6.002;2022-09-01T03:56:22;6.07;;;5.47;;
25950;SDS011;13748;52.240;6.002;2022-09-01T03:58:56;7.40;;;6.00;;
25950;SDS011;13748;52.240;6.002;2022-09-01T04:01:26;9.77;;;6.17;;
25950;SDS011;13748;52.240;6.002;2022-09-01T04:03:55;6.33;;;5.73;;
25950;SDS011;13748;52.240;6.002;2022-09-01T04:06:22;7.10;;;5.93;;
25950;SDS011;13748;52.240;6.002;2022-09-01T04:08:50;8.13;;;5.97;;
25950;SDS011;13748;52.240;6.002;2022-09-01T04:11:28;11.53;;;5.93;;
25950;SDS011;13748;52.240;6.002;2022-09-01T04:13:57;8.47;;;5.63;;
25950;SDS011;13748;52.240;6.002;2022-09-01T04:16:26;10.33;;;6.10;;
25950;SDS011;13748;52.240;6.002;2022-09-01T04:19:14;8.20;;;5.67;;
25950;SDS011;13748;52.240;6.002;2022-09-01T04:21:46;8.40;;;5.77;;
25950;SDS011;13748;52.240;6.002;2022-09-01T04:24:18;7.57;;;6.17;;
25950;SDS011;13748;52.240;6.002;2022-09-01T04:26:46;7.13;;;6.43;;
25950;SDS011;13748;52.240;6.002;2022-09-01T04:29:15;6.73;;;6.03;;
25950;SDS011;13748;52.240;6.002;2022-09-01T04:31:44;8.50;;;6.33;;
25950;SDS011;13748;52.240;6.002;2022-09-01T04:34:17;8.57;;;6.87;;
25950;SDS011;13748;52.240;6.002;2022-09-01T04:36:49;14.47;;;6.67;;
25950;SDS011;13748;52.240;6.002;2022-09-01T04:39:20;8.63;;;5.23;;
25950;SDS011;13748;52.240;6.002;2022-09-01T04:41:47;8.90;;;6.17;;
25950;SDS011;13748;52.240;6.002;2022-09-01T04:44:15;10.40;;;6.47;;
25950;SDS011;13748;52.240;6.002;2022-09-01T04:46:44;6.80;;;6.10;;
25950;SDS011;13748;52.240;6.002;2022-09-01T04:49:17;8.87;;;6.30;;
25950;SDS011;13748;52.240;6.002;2022-09-01T04:51:48;7.40;;;6.23;;
25950;SDS011;13748;52.240;6.002;2022-09-01T04:54:19;6.73;;;6.03;;
25950;SDS011;13748;52.240;6.002;2022-09-01T04:56:48;6.83;;;6.10;;
25950;SDS011;13748;52.240;6.002;2022-09-01T04:59:17;5.73;;;4.83;;
25950;SDS011;13748;52.240;6.002;2022-09-01T05:01:47;8.37;;;7.00;;
25950;SDS011;13748;52.240;6.002;2022-09-01T05:06:45;7.67;;;6.87;;
25950;SDS011;13748;52.240;6.002;2022-09-01T05:09:15;7.93;;;6.20;;
25950;SDS011;13748;52.240;6.002;2022-09-01T05:11:44;9.80;;;6.17;;
25950;SDS011;13748;52.240;6.002;2022-09-01T05:14:13;6.53;;;5.80;;
25950;SDS011;13748;52.240;6.002;2022-09-01T05:16:44;7.57;;;6.20;;
25950;SDS011;13748;52.240;6.002;2022-09-01T05:19:14;6.77;;;6.07;;
25950;SDS011;13748;52.240;6.002;2022-09-01T05:21:43;7.90;;;5.53;;
25950;SDS011;13748;52.240;6.002;2022-09-01T05:24:16;10.27;;;6.37;;
25950;SDS011;13748;52.240;6.002;2022-09-01T05:26:45;9.17;;;6.57;;
25950;SDS011;13748;52.240;6.002;2022-09-01T05:29:13;5.60;;;5.10;;
25950;SDS011;13748;52.240;6.002;2022-09-01T05:31:44;5.97;;;5.20;;
25950;SDS011;13748;52.240;6.002;2022-09-01T05:34:15;6.37;;;5.77;;
25950;SDS011;13748;52.240;6.002;2022-09-01T05:36:52;6.97;;;5.30;;
25950;SDS011;13748;52.240;6.002;2022-09-01T05:39:25;6.47;;;5.50;;
25950;SDS011;13748;52.240;6.002;2022-09-01T05:41:52;5.70;;;5.10;;
25950;SDS011;13748;52.240;6.002;2022-09-01T05:44:20;5.73;;;5.17;;
25950;SDS011;13748;52.240;6.002;2022-09-01T05:46:52;6.23;;;5.63;;
25950;SDS011;13748;52.240;6.002;2022-09-01T05:49:21;8.27;;;4.80;;
25950;SDS011;13748;52.240;6.002;2022-09-01T05:51:50;8.40;;;5.63;;
25950;SDS011;13748;52.240;6.002;2022-09-01T05:54:19;8.97;;;4.80;;
25950;SDS011;13748;52.240;6.002;2022-09-01T05:57:01;8.73;;;5.23;;
25950;SDS011;13748;52.240;6.002;2022-09-01T05:59:48;6.50;;;5.20;;
25950;SDS011;13748;52.240;6.002;2022-09-01T06:02:20;7.13;;;5.20;;
25950;SDS011;13748;52.240;6.002;2022-09-01T06:04:49;9.27;;;5.87;;
25950;SDS011;13748;52.240;6.002;2022-09-01T06:07:18;6.20;;;4.77;;
25950;SDS011;13748;52.240;6.002;2022-09-01T06:09:50;7.63;;;6.40;;
25950;SDS011;13748;52.240;6.002;2022-09-01T06:12:19;6.83;;;4.80;;
25950;SDS011;13748;52.240;6.002;2022-09-01T06:14:51;5.57;;;4.90;;
25950;SDS011;13748;52.240;6.002;2022-09-01T06:17:23;6.57;;;4.33;;
25950;SDS011;13748;52.240;6.002;2022-09-01T06:20:07;11.27;;;4.47;;
25950;SDS011;13748;52.240;6.002;2022-09-01T06:22:36;5.93;;;5.00;;
25950;SDS011;13748;52.240;6.002;2022-09-01T06:25:07;5.93;;;4.33;;
25950;SDS011;13748;52.240;6.002;2022-09-01T06:27:39;4.60;;;4.20;;
25950;SDS011;13748;52.240;6.002;2022-09-01T06:30:19;4.20;;;3.80;;
25950;SDS011;13748;52.240;6.002;2022-09-01T06:33:13;8.40;;;4.17;;
25950;SDS011;13748;52.240;6.002;2022-09-01T06:35:43;10.30;;;4.73;;
25950;SDS011;13748;52.240;6.002;2022-09-01T06:38:13;4.40;;;3.50;;
25950;SDS011;13748;52.240;6.002;2022-09-01T06:40:46;6.43;;;3.83;;
25950;SDS011;13748;52.240;6.002;2022-09-01T06:43:22;5.15;;;3.50;;
25950;SDS011;13748;52.240;6.002;2022-09-01T06:45:51;5.50;;;3.63;;
25950;SDS011;13748;52.240;6.002;2022-09-01T06:48:24;4.50;;;2.90;;
25950;SDS011;13748;52.240;6.002;2022-09-01T06:51:00;4.60;;;3.15;;
25950;SDS011;13748;52.240;6.002;2022-09-01T06:53:48;4.47;;;3.35;;
25950;SDS011;13748;52.240;6.002;2022-09-01T06:56:19;6.78;;;3.30;;
25950;SDS011;13748;52.240;6.002;2022-09-01T06:58:50;3.78;;;2.63;;
25950;SDS011;13748;52.240;6.002;2022-09-01T07:01:19;6.70;;;3.00;;
25950;SDS011;13748;52.240;6.002;2022-09-01T07:03:54;6.10;;;3.25;;
25950;SDS011;13748;52.240;6.002;2022-09-01T07:06:29;4.47;;;2.50;;
25950;SDS011;13748;52.240;6.002;2022-09-01T07:09:22;6.75;;;3.28;;
25950;SDS011;13748;52.240;6.002;2022-09-01T07:12:10;3.55;;;2.53;;
25950;SDS011;13748;52.240;6.002;2022-09-01T07:14:54;3.60;;;2.53;;
25950;SDS011;13748;52.240;6.002;2022-09-01T07:17:47;7.88;;;2.40;;
25950;SDS011;13748;52.240;6.002;2022-09-01T07:20:24;4.75;;;2.53;;
25950;SDS011;13748;52.240;6.002;2022-09-01T07:23:24;4.05;;;2.47;;
25950;SDS011;13748;52.240;6.002;2022-09-01T07:25:54;4.65;;;2.60;;
25950;SDS011;13748;52.240;6.002;2022-09-01T07:28:29;6.13;;;2.40;;
25950;SDS011;13748;52.240;6.002;2022-09-01T07:31:22;3.63;;;2.03;;
25950;SDS011;13748;52.240;6.002;2022-09-01T07:34:15;2.83;;;1.77;;
25950;SDS011;13748;52.240;6.002;2022-09-01T07:37:02;4.00;;;1.88;;
25950;SDS011;13748;52.240;6.002;2022-09-01T07:39:49;3.58;;;2.28;;
25950;SDS011;13748;52.240;6.002;2022-09-01T07:42:17;4.20;;;2.13;;
25950;SDS011;13748;52.240;6.002;2022-09-01T07:45:06;3.03;;;2.40;;
25950;SDS011;13748;52.240;6.002;2022-09-01T07:47:54;3.53;;;1.98;;
25950;SDS011;13748;52.240;6.002;2022-09-01T07:50:24;5.13;;;2.20;;
25950;SDS011;13748;52.240;6.002;2022-09-01T07:53:21;3.75;;;2.10;;
25950;SDS011;13748;52.240;6.002;2022-09-01T07:55:55;6.43;;;2.63;;
25950;SDS011;13748;52.240;6.002;2022-09-01T07:58:27;3.28;;;1.58;;
25950;SDS011;13748;52.240;6.002;2022-09-01T08:00:59;4.82;;;1.40;;
25950;SDS011;13748;52.240;6.002;2022-09-01T08:03:28;3.45;;;1.67;;
25950;SDS011;13748;52.240;6.002;2022-09-01T08:06:00;4.07;;;1.73;;
25950;SDS011;13748;52.240;6.002;2022-09-01T08:08:35;2.25;;;1.67;;
25950;SDS011;13748;52.240;6.002;2022-09-01T08:11:03;4.68;;;1.95;;
25950;SDS011;13748;52.240;6.002;2022-09-01T08:13:34;3.30;;;1.35;;
25950;SDS011;13748;52.240;6.002;2022-09-01T08:16:07;3.55;;;1.65;;
25950;SDS011;13748;52.240;6.002;2022-09-01T08:18:47;2.15;;;1.50;;
25950;SDS011;13748;52.240;6.002;2022-09-01T08:21:22;3.17;;;1.48;;
25950;SDS011;13748;52.240;6.002;2022-09-01T08:23:50;4.85;;;1.70;;
25950;SDS011;13748;52.240;6.002;2022-09-01T08:26:20;2.47;;;1.52;;
25950;SDS011;13748;52.240;6.002;2022-09-01T08:28:49;5.30;;;1.85;;
25950;SDS011;13748;52.240;6.002;2022-09-01T08:31:21;2.65;;;1.55;;
25950;SDS011;13748;52.240;6.002;2022-09-01T08:33:49;4.50;;;1.75;;
25950;SDS011;13748;52.240;6.002;2022-09-01T08:36:18;3.33;;;1.40;;
25950;SDS011;13748;52.240;6.002;2022-09-01T08:38:51;7.07;;;1.60;;
25950;SDS011;13748;52.240;6.002;2022-09-01T08:44:33;5.20;;;1.55;;
25950;SDS011;13748;52.240;6.002;2022-09-01T08:47:28;3.80;;;1.58;;
25950;SDS011;13748;52.240;6.002;2022-09-01T08:52:59;2.10;;;1.00;;
25950;SDS011;13748;52.240;6.002;2022-09-01T08:55:43;2.30;;;1.00;;
25950;SDS011;13748;52.240;6.002;2022-09-01T08:58:17;1.63;;;0.82;;
25950;SDS011;13748;52.240;6.002;2022-09-01T09:00:46;4.22;;;1.02;;
25950;SDS011;13748;52.240;6.002;2022-09-01T09:06:18;2.03;;;1.23;;
25950;SDS011;13748;52.240;6.002;2022-09-01T09:09:07;1.35;;;0.80;;
25950;SDS011;13748;52.240;6.002;2022-09-01T09:17:16;2.58;;;1.00;;
25950;SDS011;13748;52.240;6.002;2022-09-01T09:19:48;6.47;;;1.52;;
25950;SDS011;13748;52.240;6.002;2022-09-01T09:22:18;3.33;;;1.00;;
25950;SDS011;13748;52.240;6.002;2022-09-01T09:27:19;11.43;;;1.85;;
25950;SDS011;13748;52.240;6.002;2022-09-01T09:30:24;5.22;;;1.40;;
25950;SDS011;13748;52.240;6.002;2022-09-01T09:32:55;1.88;;;1.00;;
25950;SDS011;13748;52.240;6.002;2022-09-01T09:35:53;2.55;;;0.88;;
25950;SDS011;13748;52.240;6.002;2022-09-01T09:38:26;5.55;;;1.08;;
25950;SDS011;13748;52.240;6.002;2022-09-01T09:41:01;4.57;;;1.05;;
25950;SDS011;13748;52.240;6.002;2022-09-01T09:43:53;1.77;;;1.00;;
25950;SDS011;13748;52.240;6.002;2022-09-01T09:49:08;2.60;;;0.80;;
25950;SDS011;13748;52.240;6.002;2022-09-01T09:51:39;2.15;;;1.20;;
25950;SDS011;13748;52.240;6.002;2022-09-01T09:54:18;3.45;;;1.00;;
25950;SDS011;13748;52.240;6.002;2022-09-01T09:59:33;2.50;;;1.20;;
25950;SDS011;13748;52.240;6.002;2022-09-01T10:02:30;1.58;;;1.00;;
25950;SDS011;13748;52.240;6.002;2022-09-01T10:08:35;3.05;;;1.08;;
25950;SDS011;13748;52.240;6.002;2022-09-01T10:11:24;2.47;;;0.98;;
25950;SDS011;13748;52.240;6.002;2022-09-01T10:14:16;1.95;;;1.08;;
25950;SDS011;13748;52.240;6.002;2022-09-01T10:17:10;7.20;;;1.00;;
25950;SDS011;13748;52.240;6.002;2022-09-01T10:19:58;4.78;;;1.20;;
25950;SDS011;13748;52.240;6.002;2022-09-01T10:22:32;2.47;;;1.08;;
25950;SDS011;13748;52.240;6.002;2022-09-01T10:25:01;1.83;;;0.98;;
25950;SDS011;13748;52.240;6.002;2022-09-01T10:27:34;2.95;;;0.80;;
25950;SDS011;13748;52.240;6.002;2022-09-01T10:30:09;1.52;;;0.90;;
25950;SDS011;13748;52.240;6.002;2022-09-01T10:32:56;5.20;;;1.02;;
25950;SDS011;13748;52.240;6.002;2022-09-01T10:35:38;2.40;;;1.05;;
25950;SDS011;13748;52.240;6.002;2022-09-01T10:38:14;1.17;;;0.88;;
25950;SDS011;13748;52.240;6.002;2022-09-01T10:40:47;3.60;;;0.90;;
25950;SDS011;13748;52.240;6.002;2022-09-01T10:48:52;1.17;;;1.08;;
25950;SDS011;13748;52.240;6.002;2022-09-01T10:54:04;1.40;;;0.70;;
25950;SDS011;13748;52.240;6.002;2022-09-01T10:56:46;2.15;;;0.80;;
25950;SDS011;13748;52.240;6.002;2022-09-01T10:59:29;1.92;;;0.80;;
25950;SDS011;13748;52.240;6.002;2022-09-01T11:02:10;1.10;;;1.00;;
25950;SDS011;13748;52.240;6.002;2022-09-01T11:07:30;2.60;;;1.13;;
25950;SDS011;13748;52.240;6.002;2022-09-01T11:16:22;1.90;;;1.20;;
25950;SDS011;13748;52.240;6.002;2022-09-01T11:22:19;2.67;;;0.90;;
25950;SDS011;13748;52.240;6.002;2022-09-01T11:25:04;1.10;;;0.93;;
25950;SDS011;13748;52.240;6.002;2022-09-01T11:30:21;1.88;;;1.10;;
25950;SDS011;13748;52.240;6.002;2022-09-01T11:32:51;2.90;;;1.15;;
25950;SDS011;13748;52.240;6.002;2022-09-01T11:35:25;1.65;;;0.90;;
25950;SDS011;13748;52.240;6.002;2022-09-01T11:38:03;2.25;;;1.10;;
25950;SDS011;13748;52.240;6.002;2022-09-01T11:40:34;4.20;;;1.50;;
25950;SDS011;13748;52.240;6.002;2022-09-01T11:43:03;3.88;;;1.02;;
25950;SDS011;13748;52.240;6.002;2022-09-01T11:45:42;1.92;;;1.05;;
25950;SDS011;13748;52.240;6.002;2022-09-01T11:48:20;1.13;;;0.90;;
25950;SDS011;13748;52.240;6.002;2022-09-01T11:51:00;1.20;;;0.90;;
25950;SDS011;13748;52.240;6.002;2022-09-01T11:53:28;2.08;;;0.93;;
25950;SDS011;13748;52.240;6.002;2022-09-01T11:56:10;3.05;;;1.30;;
25950;SDS011;13748;52.240;6.002;2022-09-01T11:58:47;4.88;;;1.02;;
25950;SDS011;13748;52.240;6.002;2022-09-01T12:01:16;2.88;;;1.20;;
25950;SDS011;13748;52.240;6.002;2022-09-01T12:03:46;1.95;;;1.00;;
25950;SDS011;13748;52.240;6.002;2022-09-01T12:06:20;3.60;;;1.20;;
25950;SDS011;13748;52.240;6.002;2022-09-01T12:09:03;2.53;;;1.00;;
25950;SDS011;13748;52.240;6.002;2022-09-01T12:11:34;3.05;;;1.10;;
25950;SDS011;13748;52.240;6.002;2022-09-01T12:14:05;3.85;;;1.00;;
25950;SDS011;13748;52.240;6.002;2022-09-01T12:16:38;4.03;;;1.00;;
25950;SDS011;13748;52.240;6.002;2022-09-01T12:19:07;1.45;;;0.90;;
25950;SDS011;13748;52.240;6.002;2022-09-01T12:22:00;2.55;;;0.95;;
25950;SDS011;13748;52.240;6.002;2022-09-01T12:24:46;1.90;;;1.05;;
25950;SDS011;13748;52.240;6.002;2022-09-01T12:27:25;1.55;;;0.77;;
25950;SDS011;13748;52.240;6.002;2022-09-01T12:29:55;3.38;;;0.98;;
25950;SDS011;13748;52.240;6.002;2022-09-01T12:32:26;1.13;;;0.80;;
25950;SDS011;13748;52.240;6.002;2022-09-01T12:35:01;3.20;;;0.90;;
25950;SDS011;13748;52.240;6.002;2022-09-01T12:37:37;3.30;;;1.10;;
25950;SDS011;13748;52.240;6.002;2022-09-01T12:40:06;4.85;;;1.70;;
25950;SDS011;13748;52.240;6.002;2022-09-01T12:43:06;1.02;;;0.93;;
25950;SDS011;13748;52.240;6.002;2022-09-01T12:45:45;1.20;;;1.00;;
25950;SDS011;13748;52.240;6.002;2022-09-01T12:48:23;5.95;;;1.50;;
25950;SDS011;13748;52.240;6.002;2022-09-01T12:50:59;4.18;;;1.13;;
25950;SDS011;13748;52.240;6.002;2022-09-01T12:53:28;5.57;;;1.30;;
25950;SDS011;13748;52.240;6.002;2022-09-01T12:56:22;4.43;;;1.00;;
25950;SDS011;13748;52.240;6.002;2022-09-01T12:59:14;4.38;;;0.93;;
25950;SDS011;13748;52.240;6.002;2022-09-01T13:04:53;3.20;;;1.00;;
25950;SDS011;13748;52.240;6.002;2022-09-01T13:07:23;2.72;;;0.90;;
25950;SDS011;13748;52.240;6.002;2022-09-01T13:09:50;2.30;;;0.82;;
25950;SDS011;13748;52.240;6.002;2022-09-01T13:12:18;2.20;;;0.93;;
25950;SDS011;13748;52.240;6.002;2022-09-01T13:14:46;2.10;;;0.90;;
25950;SDS011;13748;52.240;6.002;2022-09-01T13:17:14;3.38;;;0.90;;
25950;SDS011;13748;52.240;6.002;2022-09-01T13:19:41;1.75;;;1.00;;
25950;SDS011;13748;52.240;6.002;2022-09-01T13:22:11;1.42;;;0.88;;
25950;SDS011;13748;52.240;6.002;2022-09-01T13:24:38;2.55;;;0.90;;
25950;SDS011;13748;52.240;6.002;2022-09-01T13:27:07;8.57;;;1.80;;
25950;SDS011;13748;52.240;6.002;2022-09-01T13:29:52;16.35;;;2.25;;
25950;SDS011;13748;52.240;6.002;2022-09-01T13:32:20;4.07;;;1.20;;
25950;SDS011;13748;52.240;6.002;2022-09-01T13:34:51;2.10;;;1.00;;
25950;SDS011;13748;52.240;6.002;2022-09-01T13:37:19;4.15;;;1.10;;
25950;SDS011;13748;52.240;6.002;2022-09-01T13:39:47;1.98;;;0.85;;
25950;SDS011;13748;52.240;6.002;2022-09-01T13:42:15;4.82;;;1.00;;
25950;SDS011;13748;52.240;6.002;2022-09-01T13:44:43;3.92;;;1.55;;
25950;SDS011;13748;52.240;6.002;2022-09-01T13:47:16;2.40;;;0.90;;
25950;SDS011;13748;52.240;6.002;2022-09-01T13:49:59;3.53;;;1.30;;
25950;SDS011;13748;52.240;6.002;2022-09-01T13:52:37;4.47;;;1.33;;
25950;SDS011;13748;52.240;6.002;2022-09-01T13:55:06;3.15;;;0.82;;
25950;SDS011;13748;52.240;6.002;2022-09-01T13:57:36;20.77;;;2.78;;
25950;SDS011;13748;52.240;6.002;2022-09-01T14:00:04;11.60;;;1.67;;
25950;SDS011;13748;52.240;6.002;2022-09-01T14:02:39;3.70;;;1.00;;
25950;SDS011;13748;52.240;6.002;2022-09-01T14:05:20;5.88;;;1.10;;
25950;SDS011;13748;52.240;6.002;2022-09-01T14:07:49;3.13;;;1.20;;
25950;SDS011;13748;52.240;6.002;2022-09-01T14:10:17;3.58;;;0.90;;
25950;SDS011;13748;52.240;6.002;2022-09-01T14:12:46;3.20;;;1.05;;
25950;SDS011;13748;52.240;6.002;2022-09-01T14:15:15;2.72;;;1.20;;
25950;SDS011;13748;52.240;6.002;2022-09-01T14:17:56;3.60;;;1.10;;
25950;SDS011;13748;52.240;6.002;2022-09-01T14:20:29;2.22;;;0.90;;
25950;SDS011;13748;52.240;6.002;2022-09-01T14:23:04;2.50;;;0.80;;
25950;SDS011;13748;52.240;6.002;2022-09-01T14:25:48;1.80;;;0.93;;
25950;SDS011;13748;52.240;6.002;2022-09-01T14:28:18;3.00;;;1.30;;
25950;SDS011;13748;52.240;6.002;2022-09-01T14:31:05;4.28;;;1.13;;
25950;SDS011;13748;52.240;6.002;2022-09-01T14:33:59;2.08;;;1.40;;
25950;SDS011;13748;52.240;6.002;2022-09-01T14:36:39;2.65;;;1.27;;
25950;SDS011;13748;52.240;6.002;2022-09-01T14:39:15;2.25;;;0.82;;
25950;SDS011;13748;52.240;6.002;2022-09-01T14:41:51;2.97;;;0.90;;
25950;SDS011;13748;52.240;6.002;2022-09-01T14:47:22;4.88;;;1.20;;
25950;SDS011;13748;52.240;6.002;2022-09-01T14:49:53;1.92;;;0.90;;
25950;SDS011;13748;52.240;6.002;2022-09-01T14:52:24;2.50;;;1.08;;
25950;SDS011;13748;52.240;6.002;2022-09-01T14:54:50;2.10;;;0.93;;
25950;SDS011;13748;52.240;6.002;2022-09-01T14:57:18;5.20;;;1.20;;
25950;SDS011;13748;52.240;6.002;2022-09-01T15:00:07;2.53;;;1.02;;
25950;SDS011;13748;52.240;6.002;2022-09-01T15:02:38;1.98;;;1.23;;
25950;SDS011;13748;52.240;6.002;2022-09-01T15:05:06;5.75;;;1.30;;
25950;SDS011;13748;52.240;6.002;2022-09-01T15:07:34;3.70;;;1.27;;
25950;SDS011;13748;52.240;6.002;2022-09-01T15:10:02;2.67;;;1.10;;
25950;SDS011;13748;52.240;6.002;2022-09-01T15:12:35;2.92;;;1.17;;
25950;SDS011;13748;52.240;6.002;2022-09-01T15:15:15;2.90;;;0.80;;
25950;SDS011;13748;52.240;6.002;2022-09-01T15:17:45;1.38;;;1.10;;
25950;SDS011;13748;52.240;6.002;2022-09-01T15:20:18;2.58;;;1.00;;
25950;SDS011;13748;52.240;6.002;2022-09-01T15:23:04;3.58;;;1.23;;
25950;SDS011;13748;52.240;6.002;2022-09-01T15:25:32;1.33;;;1.20;;
25950;SDS011;13748;52.240;6.002;2022-09-01T15:27:59;1.63;;;1.42;;
25950;SDS011;13748;52.240;6.002;2022-09-01T15:30:28;3.92;;;1.00;;
25950;SDS011;13748;52.240;6.002;2022-09-01T15:32:56;1.45;;;0.80;;
25950;SDS011;13748;52.240;6.002;2022-09-01T15:35:23;2.67;;;0.90;;
25950;SDS011;13748;52.240;6.002;2022-09-01T15:37:53;2.35;;;1.00;;
25950;SDS011;13748;52.240;6.002;2022-09-01T15:40:21;2.95;;;1.10;;
25950;SDS011;13748;52.240;6.002;2022-09-01T15:45:59;1.95;;;1.15;;
25950;SDS011;13748;52.240;6.002;2022-09-01T15:48:29;1.98;;;1.30;;
25950;SDS011;13748;52.240;6.002;2022-09-01T15:56:56;4.20;;;1.30;;
25950;SDS011;13748;52.240;6.002;2022-09-01T15:59:28;5.15;;;1.40;;
25950;SDS011;13748;52.240;6.002;2022-09-01T16:01:56;2.15;;;1.05;;
25950;SDS011;13748;52.240;6.002;2022-09-01T16:04:24;2.60;;;1.48;;
25950;SDS011;13748;52.240;6.002;2022-09-01T16:06:53;1.40;;;1.00;;
25950;SDS011;13748;52.240;6.002;2022-09-01T16:09:22;3.25;;;1.15;;
25950;SDS011;13748;52.240;6.002;2022-09-01T16:11:53;3.10;;;1.60;;
25950;SDS011;13748;52.240;6.002;2022-09-01T16:14:30;8.43;;;1.40;;
25950;SDS011;13748;52.240;6.002;2022-09-01T16:17:18;6.80;;;1.52;;
25950;SDS011;13748;52.240;6.002;2022-09-01T16:19:55;2.38;;;1.02;;
25950;SDS011;13748;52.240;6.002;2022-09-01T16:22:35;2.45;;;1.50;;
25950;SDS011;13748;52.240;6.002;2022-09-01T16:25:32;3.20;;;1.25;;
25950;SDS011;13748;52.240;6.002;2022-09-01T16:31:12;2.50;;;1.25;;
25950;SDS011;13748;52.240;6.002;2022-09-01T16:33:54;1.42;;;1.00;;
25950;SDS011;13748;52.240;6.002;2022-09-01T16:39:02;1.73;;;1.00;;
25950;SDS011;13748;52.240;6.002;2022-09-01T16:48:29;2.80;;;1.10;;
25950;SDS011;13748;52.240;6.002;2022-09-01T17:05:32;1.83;;;1.33;;